Time;durP1;ratioP1;P1;durP2;ratioP2;P2;SDS_P1;SDS_P2;PMS_P1;PMS_P2;Temp;Humidity;BMP_temperature;BMP_pressure;BME280_temperature;BME280_humidity;BME280_pressure;Samples;Min_cycle;Max_cycle;Signal;HPM_P1;HPM_P2
2021/11/30 00:01:16;;;;;;;14.83;11.00;;;3.80;99.90;;;;;;6065152;23;20586;-74
2021/11/30 00:03:42;;;;;;;17.70;10.77;;;3.80;99.90;;;;;;6062557;23;20565;-74
2021/11/30 00:06:09;;;;;;;13.27;9.93;;;3.80;99.90;;;;;;6085514;23;20735;-74
2021/11/30 00:08:38;;;;;;;12.87;10.10;;;3.80;99.90;;;;;;6062328;23;20623;-74
2021/11/30 00:11:06;;;;;;;15.30;9.90;;;3.80;99.90;;;;;;6062045;23;20588;-73
2021/11/30 00:13:33;;;;;;;12.77;9.47;;;3.80;99.90;;;;;;6060215;23;20540;-74
2021/11/30 00:15:59;;;;;;;14.80;11.03;;;3.80;99.90;;;;;;6059796;23;20663;-74
2021/11/30 00:18:26;;;;;;;13.50;10.63;;;3.80;99.90;;;;;;6086351;23;20564;-74
2021/11/30 00:20:53;;;;;;;14.20;11.40;;;3.80;99.90;;;;;;6062648;23;20662;-74
2021/11/30 00:23:19;;;;;;;16.40;11.60;;;3.80;99.90;;;;;;6061692;23;20567;-73
2021/11/30 00:25:52;;;;;;;14.37;10.87;;;3.80;99.90;;;;;;6062016;23;20536;-74
2021/11/30 00:28:18;;;;;;;15.83;11.27;;;3.80;99.90;;;;;;6063951;23;20973;-74
2021/11/30 00:30:44;;;;;;;17.20;12.23;;;3.80;99.90;;;;;;6062176;23;20572;-74
2021/11/30 00:33:10;;;;;;;17.00;11.60;;;3.90;99.90;;;;;;6063038;23;20202;-74
2021/11/30 00:35:36;;;;;;;15.57;11.50;;;3.90;99.90;;;;;;6063221;23;20227;-74
2021/11/30 00:38:04;;;;;;;13.67;10.90;;;3.90;99.90;;;;;;6062309;23;20599;-74
2021/11/30 00:40:35;;;;;;;15.50;11.40;;;3.90;99.90;;;;;;6060218;23;20631;-74
2021/11/30 00:43:01;;;;;;;13.63;10.00;;;3.90;99.90;;;;;;6062993;23;20567;-75
2021/11/30 00:45:36;;;;;;;14.90;11.57;;;3.90;99.90;;;;;;6063032;23;21416;-74
2021/11/30 00:48:08;;;;;;;14.57;10.97;;;3.80;99.90;;;;;;6060671;23;20595;-74
2021/11/30 00:50:35;;;;;;;14.10;10.90;;;3.80;99.90;;;;;;6085624;23;20556;-74
2021/11/30 00:53:01;;;;;;;15.10;10.87;;;3.80;99.90;;;;;;6062953;23;20575;-73
2021/11/30 00:55:27;;;;;;;17.90;12.20;;;3.90;99.90;;;;;;6063093;23;21346;-74
2021/11/30 00:57:53;;;;;;;17.33;11.83;;;3.90;99.90;;;;;;6059920;23;20595;-74
2021/11/30 01:00:20;;;;;;;14.80;10.57;;;3.90;99.90;;;;;;6059761;23;20199;-74
2021/11/30 01:02:51;;;;;;;16.40;10.80;;;3.80;99.90;;;;;;6061966;23;20574;-73
2021/11/30 01:05:17;;;;;;;17.63;11.90;;;3.80;99.90;;;;;;6062388;23;20807;-73
2021/11/30 01:07:48;;;;;;;15.87;12.30;;;3.90;99.90;;;;;;6062178;23;20695;-73
2021/11/30 01:10:15;;;;;;;16.50;12.73;;;3.80;99.90;;;;;;6062306;23;20658;-74
2021/11/30 01:12:42;;;;;;;17.03;12.77;;;3.90;99.90;;;;;;6062917;23;20564;-74
2021/11/30 01:15:12;;;;;;;17.30;12.43;;;3.90;99.90;;;;;;6083732;23;21092;-74
2021/11/30 01:17:46;;;;;;;15.10;11.93;;;3.90;99.90;;;;;;6062686;23;20603;-74
2021/11/30 01:20:12;;;;;;;17.97;13.00;;;3.90;99.90;;;;;;6060911;23;20632;-74
2021/11/30 01:22:42;;;;;;;20.13;13.27;;;3.90;99.90;;;;;;6058826;23;20607;-74
2021/11/30 01:25:09;;;;;;;18.17;13.00;;;3.90;99.90;;;;;;6063536;23;20615;-73
2021/11/30 01:27:35;;;;;;;15.13;11.83;;;3.90;99.90;;;;;;6062226;23;20588;-74
2021/11/30 01:30:02;;;;;;;17.70;13.23;;;4.00;99.90;;;;;;6059936;23;21105;-74
2021/11/30 01:32:28;;;;;;;18.03;13.50;;;4.00;99.90;;;;;;6062924;23;20591;-74
2021/11/30 01:34:53;;;;;;;19.70;13.37;;;4.00;99.90;;;;;;6060850;23;20540;-74
2021/11/30 01:37:19;;;;;;;16.80;13.07;;;4.10;99.90;;;;;;6058590;23;20214;-74
2021/11/30 01:39:48;;;;;;;18.53;12.80;;;4.20;99.90;;;;;;6061974;23;20250;-74
2021/11/30 01:42:16;;;;;;;17.23;12.37;;;4.20;99.90;;;;;;6064073;23;20566;-74
2021/11/30 01:50:01;;;;;;;20.87;12.43;;;4.40;99.90;;;;;;6063695;23;20501;-74
2021/11/30 01:52:28;;;;;;;16.10;12.10;;;4.40;99.90;;;;;;6062313;23;20679;-74
2021/11/30 01:54:54;;;;;;;15.83;12.27;;;4.40;99.90;;;;;;6063724;23;20544;-74
2021/11/30 01:57:31;;;;;;;16.90;12.17;;;4.40;99.90;;;;;;6064828;23;20598;-74
2021/11/30 01:59:59;;;;;;;16.47;12.50;;;4.50;99.90;;;;;;6064289;23;20587;-74
2021/11/30 02:02:28;;;;;;;15.83;11.40;;;4.50;99.90;;;;;;6064677;23;20911;-74
2021/11/30 02:04:53;;;;;;;16.13;12.10;;;4.50;99.90;;;;;;6087249;23;20563;-74
2021/11/30 02:07:19;;;;;;;13.87;12.10;;;4.50;99.90;;;;;;6062338;23;20602;-74
2021/11/30 02:09:45;;;;;;;15.70;11.77;;;4.50;99.90;;;;;;6062001;23;20178;-74
2021/11/30 02:12:12;;;;;;;13.03;11.03;;;4.60;99.90;;;;;;6065380;23;20183;-74
2021/11/30 02:14:39;;;;;;;13.47;11.17;;;4.60;99.90;;;;;;6063290;23;20544;-74
2021/11/30 02:17:08;;;;;;;15.20;11.87;;;4.50;99.90;;;;;;6063621;23;20634;-74
2021/11/30 02:19:42;;;;;;;14.43;12.17;;;4.50;99.90;;;;;;6103224;23;20950;-74
2021/11/30 02:22:11;;;;;;;13.10;11.07;;;4.40;99.90;;;;;;6105502;23;20588;-74
2021/11/30 02:24:39;;;;;;;15.93;12.30;;;4.40;99.90;;;;;;6062559;23;20909;-74
2021/11/30 02:27:05;;;;;;;15.90;11.50;;;4.40;99.90;;;;;;6062730;23;20923;-74
2021/11/30 02:29:31;;;;;;;15.83;12.37;;;4.40;99.90;;;;;;6064786;23;20543;-74
2021/11/30 02:31:56;;;;;;;13.13;11.77;;;4.40;99.90;;;;;;6086775;23;20595;-74
2021/11/30 02:34:22;;;;;;;12.73;11.27;;;4.40;99.90;;;;;;6064508;23;20175;-74
2021/11/30 02:36:50;;;;;;;14.80;11.47;;;4.40;99.90;;;;;;6062194;23;20708;-74
2021/11/30 02:39:22;;;;;;;14.67;11.07;;;4.30;99.90;;;;;;6062958;23;20187;-74
2021/11/30 02:41:51;;;;;;;12.63;11.33;;;4.20;99.90;;;;;;6063132;23;20579;-74
2021/11/30 02:44:20;;;;;;;14.70;11.30;;;4.20;99.90;;;;;;6061268;23;20559;-74
2021/11/30 02:46:55;;;;;;;14.40;11.60;;;4.20;99.90;;;;;;6084900;23;20591;-74
2021/11/30 02:49:24;;;;;;;14.50;11.40;;;4.20;99.90;;;;;;6061411;23;21112;-74
2021/11/30 02:51:54;;;;;;;13.37;11.00;;;4.20;99.90;;;;;;6065201;23;20579;-74
2021/11/30 02:54:22;;;;;;;15.10;10.90;;;4.20;99.90;;;;;;6062833;23;20591;-74
2021/11/30 02:56:57;;;;;;;12.90;10.33;;;4.20;99.90;;;;;;6060861;23;20630;-74
2021/11/30 02:59:25;;;;;;;11.60;10.27;;;4.20;99.90;;;;;;6062758;23;20563;-74
2021/11/30 03:01:59;;;;;;;13.17;10.60;;;4.10;99.90;;;;;;6062731;23;20650;-74
2021/11/30 03:04:25;;;;;;;10.53;9.43;;;4.20;99.90;;;;;;6062660;23;20591;-74
2021/11/30 03:06:51;;;;;;;10.00;9.00;;;4.20;99.90;;;;;;6061389;23;20586;-74
2021/11/30 03:09:17;;;;;;;11.33;10.13;;;4.20;99.90;;;;;;6062062;23;20567;-74
2021/11/30 03:11:43;;;;;;;13.83;9.43;;;4.20;99.90;;;;;;6063768;23;20914;-74
2021/11/30 03:14:11;;;;;;;10.67;8.80;;;4.30;99.90;;;;;;6064459;23;20590;-74
2021/11/30 03:16:41;;;;;;;10.80;8.40;;;4.20;99.90;;;;;;6061894;23;20695;-74
2021/11/30 03:19:10;;;;;;;10.10;8.57;;;4.20;99.90;;;;;;6064783;23;20576;-74
2021/11/30 03:21:35;;;;;;;9.90;8.90;;;4.20;99.90;;;;;;6062431;23;21126;-74
2021/11/30 03:24:01;;;;;;;8.90;8.03;;;4.30;99.90;;;;;;6064466;23;20550;-74
2021/11/30 03:26:30;;;;;;;10.27;8.90;;;4.40;99.90;;;;;;6062563;23;20234;-74
2021/11/30 03:28:56;;;;;;;9.27;8.33;;;4.40;99.90;;;;;;6062343;23;20559;-74
2021/11/30 03:31:33;;;;;;;10.07;8.90;;;4.30;99.90;;;;;;6062858;23;20619;-74
2021/11/30 03:34:04;;;;;;;9.73;8.70;;;4.40;99.90;;;;;;6064156;23;20159;-74
2021/11/30 03:36:33;;;;;;;9.80;8.80;;;4.30;99.90;;;;;;6060028;23;20595;-74
2021/11/30 03:39:07;;;;;;;10.97;9.03;;;4.40;99.90;;;;;;6062599;23;20582;-74
2021/11/30 03:41:34;;;;;;;9.67;8.43;;;4.40;99.90;;;;;;6064128;23;20654;-74
2021/11/30 03:44:01;;;;;;;9.93;9.03;;;4.30;99.90;;;;;;6085297;23;20564;-74
2021/11/30 03:46:27;;;;;;;10.80;9.47;;;4.30;99.90;;;;;;6063490;23;20602;-74
2021/11/30 03:48:56;;;;;;;10.97;9.33;;;4.30;99.90;;;;;;6062211;23;20591;-74
2021/11/30 03:51:21;;;;;;;10.50;9.50;;;4.20;99.90;;;;;;6062423;23;20735;-74
2021/11/30 03:53:52;;;;;;;10.00;8.20;;;4.20;99.90;;;;;;6063612;23;20540;-74
2021/11/30 03:56:18;;;;;;;10.60;9.60;;;4.20;99.90;;;;;;6063117;23;20208;-74
2021/11/30 03:58:43;;;;;;;9.97;8.87;;;4.10;99.90;;;;;;6062964;23;21220;-74
2021/11/30 04:01:12;;;;;;;10.40;9.40;;;4.10;99.90;;;;;;6063860;23;20180;-74
2021/11/30 04:03:41;;;;;;;9.63;8.77;;;4.10;99.90;;;;;;6063630;23;20144;-74
2021/11/30 04:06:07;;;;;;;11.10;8.90;;;4.00;99.90;;;;;;6061786;23;21160;-74
2021/11/30 04:08:34;;;;;;;9.17;8.27;;;4.10;99.90;;;;;;6062282;23;20543;-74
2021/11/30 04:11:03;;;;;;;9.83;8.40;;;4.10;99.90;;;;;;6063233;23;20568;-74
2021/11/30 04:13:29;;;;;;;9.03;8.17;;;4.00;99.90;;;;;;6063228;23;20633;-74
2021/11/30 04:15:55;;;;;;;8.97;8.07;;;4.10;99.90;;;;;;6083631;23;21126;-74
2021/11/30 04:18:24;;;;;;;8.63;7.70;;;4.10;99.90;;;;;;6061727;23;20504;-74
2021/11/30 04:20:54;;;;;;;9.10;7.87;;;4.10;99.90;;;;;;6062416;23;20283;-74
2021/11/30 04:23:20;;;;;;;8.33;7.53;;;4.10;99.90;;;;;;6063260;23;20536;-74
2021/11/30 04:25:46;;;;;;;8.00;7.20;;;4.10;99.90;;;;;;6061750;23;21038;-74
2021/11/30 04:28:12;;;;;;;7.47;6.70;;;4.10;99.90;;;;;;6060548;23;20614;-74
2021/11/30 04:30:38;;;;;;;8.33;7.60;;;4.10;99.90;;;;;;6059514;23;20238;-73
2021/11/30 04:33:03;;;;;;;8.27;7.40;;;4.10;99.90;;;;;;6062804;23;20170;-74
2021/11/30 04:35:29;;;;;;;8.30;7.47;;;4.00;99.90;;;;;;6091876;23;20564;-74
2021/11/30 04:37:55;;;;;;;8.50;7.70;;;4.10;99.90;;;;;;6077739;23;20282;-73
2021/11/30 04:40:21;;;;;;;8.63;7.73;;;4.10;99.90;;;;;;6082417;23;20603;-72
2021/11/30 04:42:48;;;;;;;8.73;7.90;;;4.20;99.90;;;;;;6083896;23;20156;-73
2021/11/30 04:47:52;;;;;;;9.80;7.37;;;4.20;99.90;;;;;;6063039;23;20595;-75
2021/11/30 04:50:27;;;;;;;8.57;7.77;;;4.20;99.90;;;;;;6066032;23;20559;-74
2021/11/30 04:52:56;;;;;;;8.10;7.30;;;4.20;99.90;;;;;;6075231;23;20587;-75
2021/11/30 04:55:25;;;;;;;8.40;7.60;;;4.20;99.90;;;;;;6064511;23;21346;-74
2021/11/30 04:57:54;;;;;;;8.63;7.77;;;4.20;99.90;;;;;;6062149;23;20591;-75
2021/11/30 05:00:20;;;;;;;8.27;7.47;;;4.20;99.90;;;;;;6062723;23;20602;-75
2021/11/30 05:02:48;;;;;;;8.67;7.87;;;4.20;99.90;;;;;;6064316;23;20560;-74
2021/11/30 05:05:14;;;;;;;9.13;8.07;;;4.20;99.90;;;;;;6064317;23;20947;-75
2021/11/30 05:07:45;;;;;;;9.33;8.43;;;4.30;99.90;;;;;;6061452;23;20623;-72
2021/11/30 05:10:13;;;;;;;9.87;8.10;;;4.30;99.90;;;;;;6063540;23;20568;-75
2021/11/30 05:12:41;;;;;;;10.90;8.70;;;4.30;99.90;;;;;;6062603;23;20579;-74
2021/11/30 05:15:09;;;;;;;9.77;8.80;;;4.30;99.90;;;;;;6064032;23;20573;-72
2021/11/30 05:17:40;;;;;;;9.30;8.30;;;4.40;99.90;;;;;;6085349;23;20991;-75
2021/11/30 05:20:07;;;;;;;9.30;8.40;;;4.30;99.90;;;;;;6065094;23;20618;-74
2021/11/30 05:22:33;;;;;;;10.00;8.30;;;4.40;99.90;;;;;;6064939;23;21066;-75
2021/11/30 05:25:02;;;;;;;9.23;8.33;;;4.40;99.90;;;;;;6062807;23;20551;-72
2021/11/30 05:27:40;;;;;;;11.80;8.20;;;4.40;99.90;;;;;;6064613;23;20274;-74
2021/11/30 05:30:10;;;;;;;9.83;7.90;;;4.50;99.90;;;;;;6064653;23;21007;-75
2021/11/30 05:32:36;;;;;;;9.30;8.03;;;4.50;99.90;;;;;;6066066;23;20602;-72
2021/11/30 05:35:05;;;;;;;7.93;7.20;;;4.50;99.90;;;;;;6065167;23;20544;-73
2021/11/30 05:37:30;;;;;;;8.47;7.57;;;4.60;99.90;;;;;;6062962;23;20278;-72
2021/11/30 05:39:56;;;;;;;8.57;7.80;;;4.70;99.90;;;;;;6086638;23;20639;-75
2021/11/30 05:42:22;;;;;;;8.30;7.50;;;4.80;99.90;;;;;;6061525;23;20287;-75
2021/11/30 05:44:47;;;;;;;8.53;7.73;;;4.80;99.90;;;;;;6084145;23;20160;-74
2021/11/30 05:47:13;;;;;;;8.73;7.83;;;4.80;99.90;;;;;;6082426;23;20207;-75
2021/11/30 05:49:41;;;;;;;9.43;8.53;;;4.80;99.90;;;;;;6083615;23;20163;-72
2021/11/30 05:52:07;;;;;;;9.57;8.57;;;4.80;99.90;;;;;;6059102;23;20184;-75
2021/11/30 05:54:32;;;;;;;8.43;7.53;;;4.80;99.90;;;;;;6059776;23;20844;-75
2021/11/30 05:56:58;;;;;;;9.17;8.27;;;4.90;99.90;;;;;;6059103;23;20250;-75
2021/11/30 05:59:26;;;;;;;9.60;8.60;;;5.00;99.90;;;;;;6060322;23;20258;-72
2021/11/30 06:01:53;;;;;;;8.00;7.20;;;5.00;99.90;;;;;;6081538;23;20231;-74
2021/11/30 06:04:19;;;;;;;9.83;8.40;;;5.00;99.90;;;;;;6057915;23;20899;-75
2021/11/30 06:06:45;;;;;;;8.33;7.07;;;5.00;99.90;;;;;;6057868;23;20595;-74
2021/11/30 06:09:10;;;;;;;9.53;7.00;;;5.10;99.90;;;;;;6060055;23;20775;-74
2021/11/30 06:11:37;;;;;;;7.73;6.93;;;5.10;99.90;;;;;;6060256;23;20521;-74
2021/11/30 06:14:03;;;;;;;8.03;6.90;;;5.10;99.90;;;;;;6058403;23;20238;-74
2021/11/30 06:16:30;;;;;;;7.73;7.03;;;5.20;99.90;;;;;;6047517;23;20599;-74
2021/11/30 06:18:55;;;;;;;7.70;6.90;;;5.20;99.90;;;;;;6070096;23;20607;-75
2021/11/30 06:21:21;;;;;;;7.80;7.00;;;5.20;99.90;;;;;;6069495;23;20689;-75
2021/11/30 06:23:48;;;;;;;7.43;6.50;;;5.30;99.90;;;;;;6054605;23;20204;-75
2021/11/30 06:26:14;;;;;;;6.50;5.83;;;5.30;99.90;;;;;;6070507;23;20223;-75
2021/11/30 06:28:40;;;;;;;6.90;6.20;;;5.40;99.90;;;;;;6056806;23;20536;-75
2021/11/30 06:31:07;;;;;;;8.10;6.17;;;5.50;99.90;;;;;;6056917;23;20651;-75
2021/11/30 06:33:33;;;;;;;6.93;6.23;;;5.50;99.90;;;;;;6056698;23;20187;-74
2021/11/30 06:35:59;;;;;;;6.33;5.73;;;5.50;99.90;;;;;;6057395;23;21604;-74
2021/11/30 06:38:25;;;;;;;6.00;5.40;;;5.60;99.90;;;;;;6056057;23;20622;-74
2021/11/30 06:40:51;;;;;;;6.30;5.70;;;5.60;99.90;;;;;;6061364;23;20713;-74
2021/11/30 06:43:17;;;;;;;5.80;5.20;;;5.70;99.90;;;;;;6060466;23;20664;-74
2021/11/30 06:45:43;;;;;;;6.07;5.47;;;5.70;99.90;;;;;;6082938;23;21021;-74
2021/11/30 06:48:10;;;;;;;6.00;5.40;;;5.80;99.90;;;;;;6061419;23;20192;-74
2021/11/30 06:50:36;;;;;;;6.30;5.40;;;5.80;99.90;;;;;;6060596;23;20547;-75
2021/11/30 06:53:02;;;;;;;5.40;4.90;;;5.90;99.90;;;;;;6062215;23;20532;-75
2021/11/30 06:55:28;;;;;;;7.30;4.53;;;5.80;99.90;;;;;;6063423;23;20643;-74
2021/11/30 06:57:54;;;;;;;4.90;4.40;;;5.90;99.90;;;;;;6062686;23;21226;-75
2021/11/30 07:00:22;;;;;;;5.03;4.53;;;6.00;99.90;;;;;;6086166;23;20626;-74
2021/11/30 07:02:50;;;;;;;4.10;3.70;;;6.00;99.90;;;;;;6081659;23;20183;-74
2021/11/30 07:05:19;;;;;;;5.90;4.30;;;6.00;99.90;;;;;;6052272;23;20560;-75
2021/11/30 07:15:42;;;;;;;5.37;4.23;;;6.10;99.90;;;;;;6068244;23;20512;-75
2021/11/30 07:18:11;;;;;;;4.37;3.90;;;6.20;99.90;;;;;;6060764;23;20539;-74
2021/11/30 07:20:37;;;;;;;5.47;3.93;;;6.20;99.90;;;;;;6062995;23;20591;-74
2021/11/30 07:23:03;;;;;;;5.60;4.60;;;6.20;99.90;;;;;;6073813;23;20637;-75
2021/11/30 07:25:29;;;;;;;6.67;4.20;;;6.20;99.90;;;;;;6070920;23;20880;-74
2021/11/30 07:27:55;;;;;;;4.10;3.30;;;6.20;99.90;;;;;;6081528;23;20509;-74
2021/11/30 07:30:22;;;;;;;6.73;3.10;;;6.30;99.90;;;;;;6062072;23;20281;-74
2021/11/30 07:32:48;;;;;;;5.83;3.30;;;6.40;99.90;;;;;;6060921;23;20663;-74
2021/11/30 07:35:14;;;;;;;5.83;3.20;;;6.50;99.90;;;;;;6063110;23;20540;-74
2021/11/30 07:37:40;;;;;;;7.13;3.97;;;6.50;99.90;;;;;;6058342;23;21189;-74
2021/11/30 07:40:07;;;;;;;6.50;3.40;;;6.50;99.90;;;;;;6061263;23;20699;-74
2021/11/30 07:42:33;;;;;;;8.10;3.53;;;6.50;99.90;;;;;;6060628;23;20611;-74
2021/11/30 07:44:59;;;;;;;7.53;3.50;;;6.60;99.90;;;;;;6062018;23;20548;-74
2021/11/30 07:47:25;;;;;;;7.10;3.00;;;6.70;99.90;;;;;;6059321;23;20910;-74
2021/11/30 07:49:51;;;;;;;10.73;3.13;;;6.80;99.90;;;;;;6062429;23;20596;-74
2021/11/30 07:52:17;;;;;;;9.67;2.77;;;6.80;99.90;;;;;;6081905;23;20254;-74
2021/11/30 07:54:45;;;;;;;7.90;2.33;;;6.80;99.90;;;;;;6060800;23;20544;-74
2021/11/30 07:57:11;;;;;;;9.77;2.70;;;6.90;99.90;;;;;;6059634;23;20604;-74
2021/11/30 07:59:38;;;;;;;6.93;2.40;;;6.90;99.90;;;;;;6082973;23;20704;-74
2021/11/30 08:02:04;;;;;;;8.27;3.00;;;6.80;99.90;;;;;;6062335;23;20599;-74
2021/11/30 08:04:30;;;;;;;12.77;2.63;;;6.90;99.90;;;;;;6062376;23;20925;-74
2021/11/30 08:06:56;;;;;;;9.57;3.03;;;6.90;99.90;;;;;;6058999;23;20611;-75
2021/11/30 08:09:22;;;;;;;12.27;3.10;;;6.90;99.90;;;;;;6083400;23;20596;-74
2021/11/30 08:11:47;;;;;;;10.07;2.40;;;7.00;99.90;;;;;;6060015;23;20258;-74
2021/11/30 08:14:15;;;;;;;8.30;2.60;;;7.00;99.90;;;;;;6061666;23;20163;-74
2021/11/30 08:16:44;;;;;;;6.60;2.47;;;7.00;99.90;;;;;;6060259;23;20211;-74
2021/11/30 08:19:10;;;;;;;13.53;3.13;;;7.10;99.90;;;;;;6060810;23;20588;-75
2021/11/30 08:21:36;;;;;;;8.33;2.37;;;7.10;99.90;;;;;;6061289;23;20654;-74
2021/11/30 08:24:03;;;;;;;10.43;2.53;;;7.10;99.90;;;;;;6083095;23;20598;-74
2021/11/30 08:26:28;;;;;;;8.43;2.30;;;7.20;99.90;;;;;;6061269;23;20203;-74
2021/11/30 08:28:54;;;;;;;12.63;2.97;;;7.20;99.90;;;;;;6061373;23;20563;-74
2021/11/30 08:31:20;;;;;;;8.23;3.33;;;7.20;99.90;;;;;;6061559;23;20244;-74
2021/11/30 08:33:46;;;;;;;11.20;2.90;;;7.20;99.90;;;;;;6060839;23;20167;-74
2021/11/30 08:36:11;;;;;;;7.80;2.60;;;7.20;99.90;;;;;;6060087;23;20195;-74
2021/11/30 08:38:38;;;;;;;8.53;2.60;;;7.30;99.90;;;;;;6061376;23;20995;-74
2021/11/30 08:41:04;;;;;;;9.90;2.53;;;7.30;99.90;;;;;;6096846;23;20659;-74
2021/11/30 08:43:29;;;;;;;10.93;3.10;;;7.30;99.90;;;;;;6059546;23;20602;-74
2021/11/30 08:45:55;;;;;;;11.63;2.87;;;7.40;99.90;;;;;;6061170;23;21171;-74
2021/11/30 08:48:24;;;;;;;13.63;3.00;;;7.40;99.90;;;;;;6060848;23;20160;-74
2021/11/30 08:50:51;;;;;;;9.73;2.63;;;7.40;99.90;;;;;;6059160;23;20602;-74
2021/11/30 08:53:18;;;;;;;10.97;2.40;;;7.50;99.90;;;;;;6060352;23;20615;-74
2021/11/30 08:55:44;;;;;;;9.33;2.63;;;7.50;99.90;;;;;;6060538;23;20550;-74
2021/11/30 08:58:10;;;;;;;10.73;2.97;;;7.50;99.90;;;;;;6062282;23;20539;-75
2021/11/30 09:00:37;;;;;;;12.67;3.77;;;7.50;99.90;;;;;;6061837;23;20579;-74
2021/11/30 09:03:03;;;;;;;10.47;2.50;;;7.50;99.90;;;;;;6060914;23;20179;-74
2021/11/30 09:05:29;;;;;;;11.83;2.80;;;7.50;99.90;;;;;;6083360;23;20680;-75
2021/11/30 09:07:56;;;;;;;11.13;3.50;;;7.50;99.90;;;;;;6059083;23;20211;-75
2021/11/30 09:10:23;;;;;;;9.17;2.20;;;7.50;99.90;;;;;;6083121;23;20171;-75
2021/11/30 09:12:50;;;;;;;7.80;2.33;;;7.60;99.90;;;;;;6061233;23;20586;-74
2021/11/30 09:15:16;;;;;;;9.60;2.20;;;7.60;99.90;;;;;;6061298;23;21293;-75
2021/11/30 09:17:42;;;;;;;10.90;2.70;;;7.60;99.90;;;;;;6059382;23;20600;-75
2021/11/30 09:20:09;;;;;;;10.20;2.33;;;7.60;99.90;;;;;;6061227;23;20587;-72
2021/11/30 09:22:35;;;;;;;9.27;2.83;;;7.60;99.90;;;;;;6058983;23;20592;-73
2021/11/30 09:25:04;;;;;;;12.27;2.53;;;7.60;99.90;;;;;;6084203;23;20596;-74
2021/11/30 09:27:30;;;;;;;9.40;3.00;;;7.60;99.90;;;;;;6069035;23;20712;-75
2021/11/30 09:29:58;;;;;;;11.27;2.37;;;7.60;99.90;;;;;;6075012;23;20540;-75
2021/11/30 09:32:29;;;;;;;10.03;2.73;;;7.60;99.90;;;;;;6078307;23;20579;-75
2021/11/30 09:34:59;;;;;;;10.43;3.00;;;7.70;99.90;;;;;;6069435;23;20505;-75
2021/11/30 09:37:26;;;;;;;12.90;2.80;;;7.70;99.90;;;;;;6059982;23;20592;-74
2021/11/30 09:39:52;;;;;;;8.03;2.17;;;7.60;99.90;;;;;;6059774;23;20867;-74
2021/11/30 09:42:18;;;;;;;5.83;2.93;;;7.60;99.90;;;;;;6061950;23;20581;-74
2021/11/30 09:44:45;;;;;;;8.80;2.10;;;7.60;99.90;;;;;;6061700;23;20537;-74
2021/11/30 09:47:12;;;;;;;7.97;2.47;;;7.60;99.90;;;;;;6058087;23;20666;-74
2021/11/30 09:49:39;;;;;;;12.67;2.47;;;7.70;99.90;;;;;;6057666;23;20536;-74
2021/11/30 09:52:05;;;;;;;7.53;2.03;;;7.70;99.90;;;;;;6057580;23;20599;-74
2021/11/30 09:54:30;;;;;;;6.70;2.03;;;7.70;99.90;;;;;;6057111;23;20615;-74
2021/11/30 09:56:56;;;;;;;9.67;2.37;;;7.80;99.90;;;;;;6080197;23;20599;-75
2021/11/30 09:59:22;;;;;;;9.30;2.27;;;7.80;99.90;;;;;;6057237;23;20187;-75
2021/11/30 10:01:48;;;;;;;11.93;2.90;;;7.70;99.90;;;;;;6080643;23;20200;-74
2021/11/30 10:04:13;;;;;;;6.47;2.70;;;7.70;99.90;;;;;;6085754;23;20242;-74
2021/11/30 10:06:39;;;;;;;13.60;3.43;;;7.80;99.90;;;;;;6083974;23;20213;-74
2021/11/30 10:09:21;;;;;;;8.73;2.03;;;7.80;99.90;;;;;;6068317;23;20587;-74
2021/11/30 10:11:58;;;;;;;10.83;2.67;;;7.90;99.90;;;;;;6107240;23;20262;-75
2021/11/30 10:14:33;;;;;;;10.27;2.70;;;7.90;99.90;;;;;;6076536;23;20608;-74
2021/11/30 10:17:12;;;;;;;9.40;2.20;;;8.00;99.90;;;;;;6066958;23;20602;-75
2021/11/30 10:19:40;;;;;;;14.13;3.33;;;7.90;99.90;;;;;;6066993;23;20579;-74
2021/11/30 10:22:06;;;;;;;10.47;2.70;;;8.00;99.90;;;;;;6066461;23;20572;-75
2021/11/30 10:24:32;;;;;;;8.20;2.60;;;8.00;99.90;;;;;;6064072;23;20586;-75
2021/11/30 10:26:58;;;;;;;5.10;2.63;;;8.00;99.90;;;;;;6062407;23;20902;-75
2021/11/30 10:29:24;;;;;;;11.50;2.60;;;8.00;99.90;;;;;;6060634;23;20642;-75
2021/11/30 10:31:53;;;;;;;14.77;2.80;;;8.00;99.90;;;;;;6085996;23;20591;-74
2021/11/30 10:34:29;;;;;;;10.97;2.87;;;8.00;99.90;;;;;;6063806;23;20572;-75
2021/11/30 10:37:07;;;;;;;9.67;3.30;;;8.10;99.90;;;;;;6061131;23;20599;-75
2021/11/30 10:39:37;;;;;;;14.03;2.80;;;8.20;99.90;;;;;;6061587;23;20589;-74
2021/11/30 10:42:13;;;;;;;13.97;3.70;;;8.10;99.90;;;;;;6084219;23;20647;-74
2021/11/30 10:44:41;;;;;;;9.20;3.23;;;8.20;99.90;;;;;;6060951;23;20583;-74
2021/11/30 10:47:13;;;;;;;17.00;3.63;;;8.10;99.90;;;;;;6059673;23;20639;-74
2021/11/30 10:49:48;;;;;;;15.20;3.93;;;8.20;99.90;;;;;;6060570;23;20647;-75
2021/11/30 10:52:22;;;;;;;11.80;2.93;;;8.10;99.90;;;;;;6061129;23;21108;-73
2021/11/30 10:54:52;;;;;;;11.93;3.10;;;8.30;99.90;;;;;;6062093;23;20575;-73
2021/11/30 10:57:30;;;;;;;8.10;2.87;;;8.40;99.90;;;;;;6058798;23;20703;-73
2021/11/30 11:00:30;;;;;;;9.73;3.17;;;8.30;99.90;;;;;;6062430;23;20551;-73
2021/11/30 11:03:01;;;;;;;7.70;2.70;;;8.40;99.90;;;;;;6062277;23;20576;-74
2021/11/30 11:05:36;;;;;;;10.40;3.23;;;8.30;99.90;;;;;;6059594;23;20592;-74
2021/11/30 11:08:04;;;;;;;11.70;3.10;;;8.30;99.90;;;;;;6031761;23;20588;-74
2021/11/30 11:10:31;;;;;;;9.10;2.70;;;8.30;99.90;;;;;;6053409;23;20577;-74
2021/11/30 11:13:38;;;;;;;9.30;2.57;;;8.20;99.90;;;;;;6044932;23;21100;-74
2021/11/30 11:16:06;;;;;;;10.97;3.27;;;8.20;99.90;;;;;;6060866;23;20599;-74
2021/11/30 11:18:39;;;;;;;10.90;3.43;;;8.20;99.90;;;;;;6060418;23;20580;-74
2021/11/30 11:21:18;;;;;;;10.53;2.60;;;8.20;99.90;;;;;;6083529;23;20638;-74
2021/11/30 11:23:56;;;;;;;13.30;2.60;;;8.10;99.90;;;;;;6083071;23;20588;-74
2021/11/30 11:26:24;;;;;;;12.00;2.70;;;8.20;99.90;;;;;;6080684;23;20746;-74
2021/11/30 11:28:51;;;;;;;16.37;3.10;;;8.30;99.90;;;;;;6072863;23;21101;-74
2021/11/30 11:31:17;;;;;;;9.50;2.40;;;8.30;99.90;;;;;;6063520;23;20666;-74
2021/11/30 11:33:43;;;;;;;13.53;3.40;;;8.30;99.90;;;;;;6062976;23;20536;-74
2021/11/30 11:36:10;;;;;;;10.40;3.20;;;8.30;99.90;;;;;;6060558;23;20599;-74
2021/11/30 11:38:35;;;;;;;9.70;4.10;;;8.40;99.90;;;;;;6061397;23;20618;-74
2021/11/30 11:41:01;;;;;;;12.53;2.40;;;8.30;99.90;;;;;;6059585;23;20670;-74
2021/11/30 11:43:27;;;;;;;8.73;2.67;;;8.40;99.90;;;;;;6083728;23;20167;-74
2021/11/30 11:45:53;;;;;;;14.73;3.50;;;8.30;99.90;;;;;;6059829;23;20171;-74
2021/11/30 11:48:20;;;;;;;10.87;3.40;;;8.40;99.90;;;;;;6062061;23;20226;-74
2021/11/30 11:50:59;;;;;;;10.90;2.50;;;8.30;99.90;;;;;;6062400;23;20619;-74
2021/11/30 11:53:28;;;;;;;12.90;2.93;;;8.20;99.90;;;;;;6059779;23;20535;-74
2021/11/30 11:56:18;;;;;;;10.87;2.40;;;8.20;99.90;;;;;;6081282;23;21442;-74
2021/11/30 11:58:49;;;;;;;6.87;2.20;;;8.20;99.90;;;;;;6058891;23;20531;-74
2021/11/30 12:01:19;;;;;;;9.30;2.20;;;8.20;99.90;;;;;;6062089;23;20691;-73
2021/11/30 12:03:49;;;;;;;7.83;2.17;;;8.20;99.90;;;;;;6060415;23;20555;-74
2021/11/30 12:06:25;;;;;;;6.40;2.30;;;8.10;99.90;;;;;;6059351;23;20986;-74
2021/11/30 12:09:16;;;;;;;8.50;2.97;;;8.20;99.90;;;;;;6061061;23;20596;-74
2021/11/30 12:11:52;;;;;;;9.77;2.47;;;8.20;99.90;;;;;;6060527;23;20670;-74
2021/11/30 12:14:23;;;;;;;9.17;2.03;;;8.40;99.90;;;;;;6062230;23;20612;-74
2021/11/30 12:17:14;;;;;;;8.33;2.33;;;8.40;99.90;;;;;;6060824;23;20600;-74
2021/11/30 12:19:44;;;;;;;9.13;2.20;;;8.40;99.90;;;;;;6060856;23;21078;-74
2021/11/30 12:22:13;;;;;;;7.03;1.90;;;8.40;99.90;;;;;;6059468;23;20577;-74
2021/11/30 12:24:47;;;;;;;9.43;2.93;;;8.30;99.90;;;;;;6057240;23;20576;-74
2021/11/30 12:27:30;;;;;;;7.07;1.80;;;8.30;99.90;;;;;;6057548;23;20596;-75
2021/11/30 12:29:56;;;;;;;9.97;2.83;;;8.10;99.90;;;;;;6056826;23;20593;-74
2021/11/30 12:32:30;;;;;;;7.67;2.33;;;8.10;99.90;;;;;;6057340;23;21285;-73
2021/11/30 12:35:03;;;;;;;6.53;2.10;;;8.20;99.90;;;;;;6059580;23;20182;-74
2021/11/30 12:37:31;;;;;;;8.73;2.20;;;8.10;99.90;;;;;;6058062;23;20603;-74
2021/11/30 12:40:11;;;;;;;10.10;3.43;;;8.20;99.90;;;;;;6058307;23;20607;-74
2021/11/30 12:42:40;;;;;;;8.63;2.70;;;8.20;99.90;;;;;;6060383;23;20594;-74
2021/11/30 12:45:31;;;;;;;7.37;2.47;;;8.20;99.90;;;;;;6059333;23;20592;-74
2021/11/30 12:48:18;;;;;;;11.23;2.70;;;8.30;99.90;;;;;;6027681;23;20600;-74
2021/11/30 12:50:44;;;;;;;9.20;2.37;;;8.40;99.90;;;;;;6028485;23;20599;-74
2021/11/30 12:53:18;;;;;;;6.17;2.00;;;8.20;99.90;;;;;;6054185;23;20642;-74
2021/11/30 12:55:54;;;;;;;4.70;1.43;;;8.20;99.90;;;;;;6032608;23;20525;-74
2021/11/30 12:58:40;;;;;;;7.60;2.30;;;8.10;99.90;;;;;;6084534;23;20606;-75
2021/11/30 13:01:24;;;;;;;6.77;1.60;;;7.90;99.90;;;;;;6059986;23;20611;-74
2021/11/30 13:04:45;;;;;;;7.80;1.60;;;8.00;99.90;;;;;;6080929;23;20544;-74
2021/11/30 13:07:13;;;;;;;4.30;1.70;;;7.90;99.90;;;;;;6034504;23;20585;-74
2021/11/30 13:09:46;;;;;;;6.93;1.67;;;7.80;99.90;;;;;;6053345;23;20715;-74
2021/11/30 13:12:20;;;;;;;5.27;1.70;;;7.80;99.90;;;;;;6060125;23;20568;-74
2021/11/30 13:14:48;;;;;;;6.00;1.83;;;7.80;99.90;;;;;;6059303;23;20511;-74